createdAt,value
2023-02-01T00:01:16.594Z,6.70
2023-02-01T00:03:44.879Z,6.83
2023-02-01T00:06:12.686Z,6.07
2023-02-01T00:08:40.854Z,6.03
2023-02-01T00:11:10.203Z,6.10
2023-02-01T00:13:39.576Z,6.37
2023-02-01T00:16:15.652Z,6.40
2023-02-01T00:18:44.622Z,5.70
2023-02-01T00:21:13.170Z,5.43
2023-02-01T00:23:41.308Z,4.87
2023-02-01T00:26:12.953Z,6.43
2023-02-01T00:28:41.070Z,5.33
2023-02-01T00:31:08.805Z,6.13
2023-02-01T00:33:37.400Z,5.53
2023-02-01T00:36:06.575Z,5.83
2023-02-01T00:38:35.734Z,5.63
2023-02-01T00:41:04.922Z,4.90
2023-02-01T00:43:33.684Z,5.13
2023-02-01T00:46:01.895Z,6.03
2023-02-01T00:48:29.903Z,5.60
2023-02-01T00:51:02.130Z,6.50
2023-02-01T00:53:30.268Z,6.50
2023-02-01T00:55:58.180Z,5.30
2023-02-01T00:58:27.059Z,4.67
2023-02-01T01:01:07.275Z,5.40
2023-02-01T01:03:36.965Z,5.47
2023-02-01T01:06:07.277Z,6.13
2023-02-01T01:08:35.791Z,6.17
2023-02-01T01:11:12.815Z,5.30
2023-02-01T01:13:41.233Z,4.70
2023-02-01T01:16:10.509Z,5.07
2023-02-01T01:18:38.830Z,4.87
2023-02-01T01:21:07.077Z,4.90
2023-02-01T01:23:36.307Z,5.00
2023-02-01T01:26:08.859Z,5.73
2023-02-01T01:28:36.823Z,4.70
2023-02-01T01:31:04.674Z,6.00
2023-02-01T01:33:32.794Z,5.27
2023-02-01T01:36:00.816Z,6.00
2023-02-01T01:38:28.694Z,5.30
2023-02-01T01:40:56.421Z,5.67
2023-02-01T01:43:24.472Z,5.70
2023-02-01T01:45:54.662Z,7.33
2023-02-01T01:48:23.133Z,4.90
2023-02-01T01:50:57.225Z,5.70
2023-02-01T01:53:31.550Z,5.37
2023-02-01T01:55:59.296Z,5.90
2023-02-01T01:58:30.212Z,6.20
2023-02-01T02:00:58.138Z,5.87
2023-02-01T02:03:35.244Z,7.27
2023-02-01T02:06:06.082Z,6.30
2023-02-01T02:08:34.096Z,5.77
2023-02-01T02:11:02.126Z,6.20
2023-02-01T02:13:41.229Z,6.60
2023-02-01T02:16:43.758Z,7.07
2023-02-01T02:19:50.345Z,6.07
2023-02-01T02:22:20.906Z,6.50
2023-02-01T02:25:17.369Z,7.30
2023-02-01T02:27:53.934Z,5.70
2023-02-01T02:30:22.318Z,6.00
2023-02-01T02:33:31.390Z,5.23
2023-02-01T02:36:20.149Z,5.40
2023-02-01T02:39:06.843Z,5.73
2023-02-01T02:42:08.349Z,5.23
2023-02-01T02:45:03.431Z,6.53
2023-02-01T02:47:53.773Z,5.80
2023-02-01T02:50:49.215Z,4.97
2023-02-01T02:53:41.242Z,5.27
2023-02-01T02:56:29.717Z,5.57
2023-02-01T02:59:17.826Z,5.30
2023-02-01T03:02:04.178Z,6.13
2023-02-01T03:04:32.223Z,6.37
2023-02-01T03:07:14.062Z,5.43
2023-02-01T03:09:46.622Z,5.00
2023-02-01T03:12:34.237Z,5.20
2023-02-01T03:15:09.676Z,6.10
2023-02-01T03:17:44.152Z,5.47
2023-02-01T03:20:14.795Z,4.93
2023-02-01T03:22:43.164Z,5.60
2023-02-01T03:25:14.413Z,6.00
2023-02-01T03:28:01.342Z,5.03
2023-02-01T03:30:36.569Z,5.40
2023-02-01T03:33:14.788Z,5.43
2023-02-01T03:35:49.513Z,4.03
2023-02-01T03:38:20.562Z,5.53
2023-02-01T03:40:50.928Z,5.53
2023-02-01T03:43:20.836Z,5.20
2023-02-01T03:45:52.268Z,5.37
2023-02-01T03:48:21.730Z,4.07
2023-02-01T03:50:52.539Z,5.67
2023-02-01T03:53:22.789Z,5.00
2023-02-01T03:55:52.005Z,4.23
2023-02-01T03:58:20.967Z,5.30
2023-02-01T04:00:56.631Z,5.33
2023-02-01T04:03:26.437Z,5.97
2023-02-01T04:05:55.353Z,4.63
2023-02-01T04:08:27.401Z,4.90
2023-02-01T04:10:55.461Z,4.77
2023-02-01T04:13:23.092Z,4.80
2023-02-01T04:15:51.010Z,4.20
2023-02-01T04:18:18.935Z,4.67
2023-02-01T04:20:47.069Z,4.50
2023-02-01T04:23:16.688Z,5.87
2023-02-01T04:25:44.773Z,4.93
2023-02-01T04:28:12.613Z,5.80
2023-02-01T04:30:40.744Z,6.40
2023-02-01T04:33:08.746Z,5.00
2023-02-01T04:35:36.675Z,5.40
2023-02-01T04:38:04.361Z,5.20
2023-02-01T04:40:32.402Z,5.37
2023-02-01T04:43:00.476Z,5.83
2023-02-01T04:45:28.719Z,5.43
2023-02-01T04:47:56.480Z,5.60
2023-02-01T04:50:25.259Z,6.93
2023-02-01T04:52:53.093Z,4.93
2023-02-01T04:55:21.063Z,7.10
2023-02-01T04:57:48.828Z,5.53
2023-02-01T05:00:17.103Z,4.43
2023-02-01T05:02:44.888Z,5.90
2023-02-01T05:05:13.864Z,5.60
2023-02-01T05:07:41.557Z,5.47
2023-02-01T05:10:10.047Z,5.50
2023-02-01T05:12:56.404Z,5.33
2023-02-01T05:15:24.377Z,4.50
2023-02-01T05:17:52.065Z,5.57
2023-02-01T05:20:20.371Z,5.23
2023-02-01T05:22:48.224Z,5.70
2023-02-01T05:25:16.273Z,5.00
2023-02-01T05:27:44.493Z,5.70
2023-02-01T05:30:12.834Z,4.63
2023-02-01T05:32:40.478Z,5.50
2023-02-01T05:35:08.828Z,5.37
2023-02-01T05:37:36.695Z,5.77
2023-02-01T05:40:04.966Z,5.23
2023-02-01T05:42:32.882Z,5.50
2023-02-01T05:45:00.966Z,5.53
2023-02-01T05:47:28.823Z,6.47
2023-02-01T05:49:56.880Z,4.97
2023-02-01T05:52:24.749Z,5.67
2023-02-01T05:54:53.788Z,6.03
2023-02-01T05:57:21.558Z,6.63
2023-02-01T05:59:49.806Z,5.90
2023-02-01T06:02:17.846Z,6.33
2023-02-01T06:04:45.805Z,6.27
2023-02-01T06:07:13.554Z,5.67
2023-02-01T06:09:41.705Z,5.83
2023-02-01T06:12:09.738Z,7.27
2023-02-01T06:14:38.282Z,6.17
2023-02-01T06:17:07.476Z,6.50
2023-02-01T06:19:35.609Z,5.90
2023-02-01T06:22:03.366Z,6.27
2023-02-01T06:24:31.354Z,5.53
2023-02-01T06:26:59.147Z,5.80
2023-02-01T06:29:27.676Z,6.77
2023-02-01T06:31:55.520Z,4.10
2023-02-01T06:34:24.298Z,5.17
2023-02-01T06:36:52.189Z,5.63
2023-02-01T06:39:20.165Z,5.77
2023-02-01T06:41:48.622Z,5.03
2023-02-01T06:44:17.224Z,5.40
2023-02-01T06:46:45.367Z,5.57
2023-02-01T06:49:13.553Z,5.60
2023-02-01T06:51:41.326Z,4.53
2023-02-01T06:54:09.433Z,5.13
2023-02-01T06:56:37.323Z,5.13
2023-02-01T06:59:06.069Z,5.13
2023-02-01T07:01:34.133Z,4.93
2023-02-01T07:04:02.486Z,6.73
2023-02-01T07:06:30.349Z,4.53
2023-02-01T07:08:58.860Z,4.77
2023-02-01T07:11:28.499Z,5.23
2023-02-01T07:13:56.651Z,6.27
2023-02-01T07:16:24.810Z,5.50
2023-02-01T07:18:54.907Z,5.50
2023-02-01T07:21:23.507Z,6.80
2023-02-01T07:23:51.614Z,6.50
2023-02-01T07:26:19.881Z,5.47
2023-02-01T07:28:48.370Z,7.23
2023-02-01T07:31:20.008Z,10.57
2023-02-01T07:33:48.317Z,8.33
2023-02-01T07:36:17.563Z,9.17
2023-02-01T07:38:45.684Z,6.23
2023-02-01T07:41:13.514Z,7.00
2023-02-01T07:43:41.694Z,6.03
2023-02-01T07:46:09.670Z,4.97
2023-02-01T07:48:37.961Z,5.83
2023-02-01T07:51:07.560Z,5.43
2023-02-01T07:53:35.950Z,5.07
2023-02-01T07:56:04.869Z,4.37
2023-02-01T07:58:32.978Z,5.17
2023-02-01T08:01:19.470Z,5.57
2023-02-01T08:03:48.892Z,5.53
2023-02-01T08:06:16.960Z,5.03
2023-02-01T08:08:46.340Z,5.27
2023-02-01T08:11:14.719Z,4.87
2023-02-01T08:13:42.735Z,5.23
2023-02-01T08:16:11.319Z,4.60
2023-02-01T08:18:40.196Z,6.27
2023-02-01T08:21:15.524Z,5.53
2023-02-01T08:23:43.969Z,4.43
2023-02-01T08:26:41.203Z,5.13
2023-02-01T08:29:09.749Z,5.13
2023-02-01T08:31:37.410Z,4.67
2023-02-01T08:34:05.491Z,4.77
2023-02-01T08:36:33.498Z,5.00
2023-02-01T08:39:01.734Z,6.17
2023-02-01T08:41:30.899Z,5.77
2023-02-01T08:43:59.443Z,7.60
2023-02-01T08:46:27.225Z,5.53
2023-02-01T08:48:55.179Z,5.17
2023-02-01T08:51:23.950Z,5.93
2023-02-01T08:53:52.296Z,4.57
2023-02-01T08:56:20.501Z,5.77
2023-02-01T08:58:48.538Z,4.97
2023-02-01T09:01:18.014Z,4.67
2023-02-01T09:03:46.938Z,4.27
2023-02-01T09:06:16.152Z,4.53
2023-02-01T09:08:44.457Z,4.00
2023-02-01T09:11:14.400Z,3.63
2023-02-01T09:13:42.832Z,3.70
2023-02-01T09:16:10.728Z,4.00
2023-02-01T09:18:46.108Z,5.43
2023-02-01T09:21:24.151Z,4.23
2023-02-01T09:23:52.897Z,4.47
2023-02-01T09:26:26.518Z,4.37
2023-02-01T09:28:59.538Z,3.73
2023-02-01T09:31:27.644Z,4.87
2023-02-01T09:33:55.845Z,5.10
2023-02-01T09:36:24.664Z,5.20
2023-02-01T09:38:53.398Z,4.90
2023-02-01T09:41:44.698Z,5.20
2023-02-01T09:44:23.119Z,7.63
2023-02-01T09:46:57.675Z,7.43
2023-02-01T09:49:33.638Z,5.20
2023-02-01T09:52:04.024Z,5.63
2023-02-01T09:54:38.342Z,5.00
2023-02-01T09:57:21.486Z,5.70
2023-02-01T09:59:54.883Z,4.90
2023-02-01T10:02:26.176Z,5.23
2023-02-01T10:04:59.122Z,4.77
2023-02-01T10:07:56.428Z,4.90
2023-02-01T10:10:27.590Z,4.70
2023-02-01T10:13:24.917Z,4.60
2023-02-01T10:16:08.485Z,4.90
2023-02-01T10:18:44.345Z,3.97
2023-02-01T10:21:18.316Z,4.47
2023-02-01T10:23:55.177Z,4.13
2023-02-01T10:26:31.675Z,4.33
2023-02-01T10:29:05.584Z,5.87
2023-02-01T10:31:39.036Z,6.17
2023-02-01T10:34:34.655Z,5.20
2023-02-01T10:37:28.209Z,5.37
2023-02-01T10:39:58.654Z,4.60
2023-02-01T10:42:29.208Z,5.20
2023-02-01T10:45:00.680Z,5.60
2023-02-01T10:47:28.174Z,5.27
2023-02-01T10:50:15.872Z,5.00
2023-02-01T10:52:49.352Z,5.80
2023-02-01T10:55:30.178Z,4.13
2023-02-01T10:58:03.639Z,4.37
2023-02-01T11:00:43.090Z,4.47
2023-02-01T11:03:40.362Z,5.90
2023-02-01T11:06:41.115Z,5.03
2023-02-01T11:09:24.893Z,4.77
2023-02-01T11:11:52.458Z,5.10
2023-02-01T11:14:33.226Z,5.07
2023-02-01T11:17:03.540Z,5.87
2023-02-01T11:19:31.528Z,6.50
2023-02-01T11:22:01.195Z,6.63
2023-02-01T11:24:34.079Z,7.37
2023-02-01T11:27:06.809Z,7.50
2023-02-01T11:29:41.256Z,6.60
2023-02-01T11:32:10.133Z,6.30
2023-02-01T11:34:49.012Z,6.40
2023-02-01T11:37:27.998Z,8.73
2023-02-01T11:40:01.672Z,6.87
2023-02-01T11:42:29.903Z,7.23
2023-02-01T11:45:21.303Z,7.77
2023-02-01T11:47:53.979Z,6.27
2023-02-01T11:50:33.464Z,6.33
2023-02-01T11:53:12.660Z,5.90
2023-02-01T11:55:53.687Z,6.17
2023-02-01T11:58:48.922Z,6.37
2023-02-01T12:01:28.169Z,6.27
2023-02-01T12:04:01.472Z,5.13
2023-02-01T12:06:52.381Z,5.63
2023-02-01T12:09:51.957Z,4.97
2023-02-01T12:12:31.834Z,4.90
2023-02-01T12:15:35.804Z,3.70
2023-02-01T12:18:27.275Z,3.23
2023-02-01T12:21:03.728Z,3.13
2023-02-01T12:23:43.205Z,2.93
2023-02-01T12:26:32.463Z,2.27
2023-02-01T12:29:28.131Z,2.77
2023-02-01T12:32:07.475Z,2.93
2023-02-01T12:34:55.341Z,3.30
2023-02-01T12:37:55.626Z,9.07
2023-02-01T12:40:50.733Z,4.30
2023-02-01T12:43:44.037Z,4.53
2023-02-01T12:46:29.116Z,4.10
2023-02-01T12:49:01.444Z,4.23
2023-02-01T12:51:35.287Z,3.60
2023-02-01T12:54:15.138Z,4.10
2023-02-01T12:56:52.664Z,4.30
2023-02-01T12:59:53.702Z,5.10
2023-02-01T13:02:26.794Z,5.63
2023-02-01T13:05:07.873Z,2.93
2023-02-01T13:07:44.657Z,2.77
2023-02-01T13:10:33.768Z,3.20
2023-02-01T13:13:23.521Z,3.30
2023-02-01T13:15:57.047Z,3.93
2023-02-01T13:18:29.814Z,3.50
2023-02-01T13:21:11.659Z,4.47
2023-02-01T13:23:41.752Z,4.50
2023-02-01T13:26:09.217Z,3.57
2023-02-01T13:28:54.180Z,3.43
2023-02-01T13:31:55.641Z,3.70
2023-02-01T13:34:48.189Z,2.20
2023-02-01T13:37:15.345Z,3.40
2023-02-01T13:40:22.847Z,3.03
2023-02-01T13:42:54.471Z,4.03
2023-02-01T13:45:26.400Z,4.53
2023-02-01T13:47:58.356Z,9.23
2023-02-01T13:50:35.108Z,9.77
2023-02-01T13:53:16.177Z,8.43
2023-02-01T13:55:53.556Z,2.90
2023-02-01T13:58:24.028Z,4.03
2023-02-01T14:00:52.405Z,3.60
2023-02-01T14:03:43.607Z,3.23
2023-02-01T14:06:44.844Z,3.40
2023-02-01T14:09:15.277Z,3.33
2023-02-01T14:11:49.217Z,3.00
2023-02-01T14:14:16.475Z,3.33
2023-02-01T14:16:45.616Z,3.73
2023-02-01T14:19:30.998Z,3.47
2023-02-01T14:22:25.251Z,6.10
2023-02-01T14:24:57.762Z,4.10
2023-02-01T14:27:31.035Z,6.50
2023-02-01T14:30:01.601Z,6.40
2023-02-01T14:32:37.670Z,3.60
2023-02-01T14:35:28.149Z,3.23
2023-02-01T14:38:03.769Z,4.13
2023-02-01T14:40:32.117Z,5.17
2023-02-01T14:42:59.914Z,4.33
2023-02-01T14:45:28.546Z,3.50
2023-02-01T14:48:08.726Z,3.87
2023-02-01T14:50:43.505Z,4.50
2023-02-01T14:53:14.316Z,4.93
2023-02-01T14:55:43.410Z,4.33
2023-02-01T14:58:45.390Z,3.80
2023-02-01T15:01:35.214Z,5.13
2023-02-01T15:04:14.604Z,3.60
2023-02-01T15:06:58.598Z,4.87
2023-02-01T15:09:35.910Z,5.10
2023-02-01T15:12:12.220Z,4.60
2023-02-01T15:14:43.594Z,5.47
2023-02-01T15:17:24.931Z,4.27
2023-02-01T15:19:57.474Z,5.57
2023-02-01T15:22:25.999Z,4.40
2023-02-01T15:25:01.558Z,4.50
2023-02-01T15:27:30.606Z,4.03
2023-02-01T15:30:22.683Z,5.23
2023-02-01T15:32:51.228Z,4.13
2023-02-01T15:35:44.677Z,4.50
2023-02-01T15:38:22.826Z,4.00
2023-02-01T15:41:20.592Z,4.90
2023-02-01T15:44:04.792Z,5.30
2023-02-01T15:46:43.558Z,4.83
2023-02-01T15:49:21.762Z,4.17
2023-02-01T15:51:49.815Z,3.33
2023-02-01T15:54:27.356Z,5.37
2023-02-01T15:56:56.858Z,4.73
2023-02-01T15:59:34.442Z,5.50
2023-02-01T16:02:02.036Z,4.33
2023-02-01T16:04:34.001Z,6.00
2023-02-01T16:07:05.484Z,4.03
2023-02-01T16:09:40.097Z,5.07
2023-02-01T16:12:28.850Z,4.87
2023-02-01T16:14:56.072Z,5.60
2023-02-01T16:17:23.634Z,5.20
2023-02-01T16:19:51.691Z,6.57
2023-02-01T16:22:19.536Z,6.83
2023-02-01T16:24:46.968Z,6.37
2023-02-01T16:27:14.774Z,5.23
2023-02-01T16:29:42.897Z,4.90
2023-02-01T16:32:28.812Z,5.97
2023-02-01T16:34:58.166Z,5.30
2023-02-01T16:37:28.543Z,5.03
2023-02-01T16:39:55.819Z,4.13
2023-02-01T16:42:23.324Z,8.83
2023-02-01T16:44:50.504Z,5.70
2023-02-01T16:47:24.080Z,5.73
2023-02-01T16:49:52.057Z,5.87
2023-02-01T16:52:24.953Z,5.10
2023-02-01T16:54:52.522Z,5.77
2023-02-01T16:57:25.054Z,5.17
2023-02-01T16:59:52.617Z,12.37
2023-02-01T17:02:22.377Z,13.93
2023-02-01T17:04:50.158Z,8.67
2023-02-01T17:07:20.050Z,5.23
2023-02-01T17:09:48.926Z,5.33
2023-02-01T17:12:27.873Z,5.27
2023-02-01T17:14:55.911Z,4.40
2023-02-01T17:17:39.001Z,4.83
2023-02-01T17:20:08.042Z,10.83
2023-02-01T17:22:36.353Z,5.33
2023-02-01T17:25:09.132Z,5.47
2023-02-01T17:27:39.020Z,7.23
2023-02-01T17:30:07.128Z,6.37
2023-02-01T17:32:35.179Z,6.43
2023-02-01T17:35:03.815Z,8.30
2023-02-01T17:37:38.014Z,6.33
2023-02-01T17:40:07.129Z,5.27
2023-02-01T17:42:38.973Z,5.73
2023-02-01T17:45:37.471Z,6.23
2023-02-01T17:48:07.665Z,5.87
2023-02-01T17:50:38.682Z,5.07
2023-02-01T17:53:10.138Z,5.53
2023-02-01T17:55:42.234Z,7.17
2023-02-01T17:58:15.097Z,11.50
2023-02-01T18:00:44.003Z,9.27
2023-02-01T18:03:24.517Z,6.40
2023-02-01T18:05:53.811Z,6.60
2023-02-01T18:08:23.490Z,5.50
2023-02-01T18:10:54.528Z,4.93
2023-02-01T18:13:22.846Z,4.73
2023-02-01T18:15:50.443Z,4.33
2023-02-01T18:18:18.063Z,4.80
2023-02-01T18:20:47.632Z,5.43
2023-02-01T18:23:21.167Z,6.60
2023-02-01T18:25:49.628Z,4.40
2023-02-01T18:28:18.307Z,4.90
2023-02-01T18:30:49.203Z,4.83
2023-02-01T18:33:19.284Z,4.27
2023-02-01T18:35:47.596Z,4.37
2023-02-01T18:38:16.169Z,3.97
2023-02-01T18:40:58.891Z,4.00
2023-02-01T18:43:27.955Z,3.80
2023-02-01T18:45:55.907Z,3.73
2023-02-01T18:48:24.423Z,5.13
2023-02-01T18:50:57.563Z,4.37
2023-02-01T18:53:27.687Z,4.10
2023-02-01T18:55:56.423Z,3.43
2023-02-01T18:58:27.850Z,3.90
2023-02-01T19:00:57.735Z,4.57
2023-02-01T19:03:27.067Z,4.43
2023-02-01T19:05:57.927Z,4.67
2023-02-01T19:08:26.154Z,4.57
2023-02-01T19:10:54.682Z,4.40
2023-02-01T19:13:24.686Z,3.40
2023-02-01T19:15:52.007Z,4.07
2023-02-01T19:18:20.555Z,4.43
2023-02-01T19:20:51.437Z,3.73
2023-02-01T19:23:19.486Z,4.50
2023-02-01T19:25:48.777Z,4.60
2023-02-01T19:28:16.822Z,4.67
2023-02-01T19:30:45.053Z,4.90
2023-02-01T19:33:13.001Z,5.17
2023-02-01T19:35:40.766Z,4.90
2023-02-01T19:38:09.701Z,5.10
2023-02-01T19:40:37.271Z,4.80
2023-02-01T19:43:04.976Z,5.30
2023-02-01T19:45:32.479Z,5.87
2023-02-01T19:48:03.319Z,5.47
2023-02-01T19:50:31.111Z,6.67
2023-02-01T19:52:59.077Z,5.87
2023-02-01T19:55:27.240Z,5.70
2023-02-01T19:57:55.488Z,5.70
2023-02-01T20:00:22.591Z,7.40
2023-02-01T20:02:50.835Z,8.80
2023-02-01T20:05:19.263Z,9.17
2023-02-01T20:07:46.938Z,7.97
2023-02-01T20:10:14.973Z,7.80
2023-02-01T20:12:44.661Z,7.27
2023-02-01T20:15:12.198Z,7.73
2023-02-01T20:17:40.004Z,6.63
2023-02-01T20:20:07.978Z,7.87
2023-02-01T20:22:35.619Z,7.70
2023-02-01T20:25:04.531Z,7.13
2023-02-01T20:27:34.136Z,6.93
2023-02-01T20:30:01.622Z,7.83
2023-02-01T20:32:29.359Z,7.17
2023-02-01T20:34:56.994Z,7.60
2023-02-01T20:37:24.951Z,8.70
2023-02-01T20:39:52.787Z,7.13
2023-02-01T20:42:20.817Z,7.67
2023-02-01T20:44:48.568Z,6.33
2023-02-01T20:47:16.725Z,6.83
2023-02-01T20:49:44.322Z,6.30
2023-02-01T20:52:13.289Z,6.10
2023-02-01T20:54:41.152Z,6.37
2023-02-01T20:57:09.555Z,5.83
2023-02-01T20:59:37.425Z,5.70
2023-02-01T21:02:05.528Z,5.70
2023-02-01T21:04:34.436Z,5.67
2023-02-01T21:07:03.467Z,5.53
2023-02-01T21:09:31.391Z,6.23
2023-02-01T21:11:59.515Z,6.87
2023-02-01T21:14:27.399Z,6.70
2023-02-01T21:16:55.010Z,5.57
2023-02-01T21:19:26.372Z,6.03
2023-02-01T21:21:54.682Z,5.40
2023-02-01T21:24:22.185Z,5.13
2023-02-01T21:26:49.928Z,5.70
2023-02-01T21:29:18.013Z,5.67
2023-02-01T21:31:45.835Z,5.33
2023-02-01T21:34:13.559Z,5.97
2023-02-01T21:36:41.726Z,5.30
2023-02-01T21:39:10.952Z,6.77
2023-02-01T21:41:57.102Z,6.17
2023-02-01T21:44:25.017Z,7.27
2023-02-01T21:46:53.007Z,5.57
2023-02-01T21:49:20.522Z,6.43
2023-02-01T21:51:48.352Z,5.80
2023-02-01T21:54:17.477Z,6.10
2023-02-01T21:56:45.768Z,5.77
2023-02-01T21:59:13.525Z,7.70
2023-02-01T22:01:41.600Z,6.50
2023-02-01T22:04:10.440Z,6.07
2023-02-01T22:06:46.992Z,7.80
2023-02-01T22:09:21.712Z,7.60
2023-02-01T22:11:51.438Z,5.03
2023-02-01T22:14:19.544Z,5.90
2023-02-01T22:16:47.783Z,6.00
2023-02-01T22:19:15.466Z,5.87
2023-02-01T22:21:46.197Z,5.67
2023-02-01T22:24:16.395Z,6.47
2023-02-01T22:26:48.100Z,6.33
2023-02-01T22:29:17.362Z,6.03
2023-02-01T22:31:45.826Z,5.47
2023-02-01T22:34:13.565Z,5.20
2023-02-01T22:36:41.544Z,5.37
2023-02-01T22:39:09.348Z,5.10
2023-02-01T22:41:37.939Z,5.97
2023-02-01T22:44:06.423Z,7.70
2023-02-01T22:46:34.637Z,5.63
2023-02-01T22:49:03.584Z,6.13
2023-02-01T22:51:32.859Z,5.70
2023-02-01T22:54:00.921Z,8.13
2023-02-01T22:56:36.818Z,6.50
2023-02-01T22:59:07.825Z,6.77
2023-02-01T23:01:35.990Z,7.53
2023-02-01T23:04:05.907Z,8.47
2023-02-01T23:06:34.899Z,8.10
2023-02-01T23:09:13.832Z,8.97
2023-02-01T23:11:42.389Z,9.90
2023-02-01T23:14:10.620Z,9.80
2023-02-01T23:16:39.455Z,10.50
2023-02-01T23:19:07.058Z,9.13
2023-02-01T23:21:34.985Z,9.83
2023-02-01T23:24:04.831Z,9.93
2023-02-01T23:26:32.569Z,8.83
2023-02-01T23:29:01.316Z,8.70
2023-02-01T23:31:31.216Z,8.83
2023-02-01T23:34:00.621Z,8.57
2023-02-01T23:36:29.828Z,8.83
2023-02-01T23:38:57.568Z,7.97
2023-02-01T23:41:27.566Z,8.03
2023-02-01T23:43:57.973Z,12.17
2023-02-01T23:46:41.744Z,7.03
2023-02-01T23:49:10.088Z,7.37
2023-02-01T23:51:37.723Z,7.67
2023-02-01T23:54:06.569Z,7.27
2023-02-01T23:56:40.296Z,7.27
2023-02-01T23:59:12.474Z,6.60
